sensor_id;sensor_type;location;lat;lon;timestamp;temperature;humidity
16513;DHT22;8369;48.030;11.598;2022-07-11T00:02:08;15.70;97.80
16513;DHT22;8369;48.030;11.598;2022-07-11T00:04:35;15.70;97.90
16513;DHT22;8369;48.030;11.598;2022-07-11T00:07:02;15.70;97.90
16513;DHT22;8369;48.030;11.598;2022-07-11T00:09:29;15.70;97.70
16513;DHT22;8369;48.030;11.598;2022-07-11T00:11:55;15.80;97.10
16513;DHT22;8369;48.030;11.598;2022-07-11T00:14:22;15.80;96.70
16513;DHT22;8369;48.030;11.598;2022-07-11T00:16:51;15.80;96.90
16513;DHT22;8369;48.030;11.598;2022-07-11T00:19:18;15.80;97.00
16513;DHT22;8369;48.030;11.598;2022-07-11T00:21:44;15.80;97.10
16513;DHT22;8369;48.030;11.598;2022-07-11T00:24:10;15.80;97.00
16513;DHT22;8369;48.030;11.598;2022-07-11T00:26:36;15.90;97.10
16513;DHT22;8369;48.030;11.598;2022-07-11T00:29:03;15.90;97.00
16513;DHT22;8369;48.030;11.598;2022-07-11T00:31:29;15.90;97.20
16513;DHT22;8369;48.030;11.598;2022-07-11T00:33:56;15.90;97.40
16513;DHT22;8369;48.030;11.598;2022-07-11T00:36:22;15.90;98.00
16513;DHT22;8369;48.030;11.598;2022-07-11T00:38:48;15.90;97.80
16513;DHT22;8369;48.030;11.598;2022-07-11T00:41:15;15.90;98.10
16513;DHT22;8369;48.030;11.598;2022-07-11T00:43:41;15.90;98.30
16513;DHT22;8369;48.030;11.598;2022-07-11T00:46:07;15.80;98.30
16513;DHT22;8369;48.030;11.598;2022-07-11T00:48:34;15.80;97.80
16513;DHT22;8369;48.030;11.598;2022-07-11T00:51:02;15.80;97.40
16513;DHT22;8369;48.030;11.598;2022-07-11T00:53:30;15.80;97.70
16513;DHT22;8369;48.030;11.598;2022-07-11T00:55:56;15.80;98.10
16513;DHT22;8369;48.030;11.598;2022-07-11T00:58:23;15.90;97.90
16513;DHT22;8369;48.030;11.598;2022-07-11T01:00:49;15.90;97.80
16513;DHT22;8369;48.030;11.598;2022-07-11T01:03:15;15.90;97.70
16513;DHT22;8369;48.030;11.598;2022-07-11T01:05:41;15.90;97.80
16513;DHT22;8369;48.030;11.598;2022-07-11T01:08:07;15.90;98.00
16513;DHT22;8369;48.030;11.598;2022-07-11T01:10:34;15.90;98.30
16513;DHT22;8369;48.030;11.598;2022-07-11T01:13:00;15.90;97.80
16513;DHT22;8369;48.030;11.598;2022-07-11T01:15:26;15.90;97.60
16513;DHT22;8369;48.030;11.598;2022-07-11T01:17:52;15.90;97.80
16513;DHT22;8369;48.030;11.598;2022-07-11T01:20:22;15.90;98.10
16513;DHT22;8369;48.030;11.598;2022-07-11T01:25:23;15.90;98.10
16513;DHT22;8369;48.030;11.598;2022-07-11T01:30:27;16.00;97.80
16513;DHT22;8369;48.030;11.598;2022-07-11T01:32:54;16.00;98.10
16513;DHT22;8369;48.030;11.598;2022-07-11T01:35:23;16.00;97.90
16513;DHT22;8369;48.030;11.598;2022-07-11T01:37:50;16.00;98.40
16513;DHT22;8369;48.030;11.598;2022-07-11T01:40:16;16.00;98.40
16513;DHT22;8369;48.030;11.598;2022-07-11T01:42:42;16.00;98.20
16513;DHT22;8369;48.030;11.598;2022-07-11T01:45:09;16.00;98.00
16513;DHT22;8369;48.030;11.598;2022-07-11T01:47:35;16.00;98.00
16513;DHT22;8369;48.030;11.598;2022-07-11T01:50:02;16.00;98.10
16513;DHT22;8369;48.030;11.598;2022-07-11T01:52:28;16.00;98.20
16513;DHT22;8369;48.030;11.598;2022-07-11T01:54:54;16.00;98.50
16513;DHT22;8369;48.030;11.598;2022-07-11T01:57:20;16.00;98.80
16513;DHT22;8369;48.030;11.598;2022-07-11T01:59:46;16.00;98.40
16513;DHT22;8369;48.030;11.598;2022-07-11T02:02:13;16.00;98.40
16513;DHT22;8369;48.030;11.598;2022-07-11T02:04:39;16.00;98.30
16513;DHT22;8369;48.030;11.598;2022-07-11T02:07:05;16.00;98.40
16513;DHT22;8369;48.030;11.598;2022-07-11T02:09:31;16.00;98.20
16513;DHT22;8369;48.030;11.598;2022-07-11T02:11:57;16.00;98.40
16513;DHT22;8369;48.030;11.598;2022-07-11T02:14:23;16.00;97.80
16513;DHT22;8369;48.030;11.598;2022-07-11T02:16:49;16.00;96.90
16513;DHT22;8369;48.030;11.598;2022-07-11T02:19:14;16.00;97.40
16513;DHT22;8369;48.030;11.598;2022-07-11T02:21:42;16.00;97.50
16513;DHT22;8369;48.030;11.598;2022-07-11T02:24:08;16.00;97.80
16513;DHT22;8369;48.030;11.598;2022-07-11T02:26:34;16.00;97.30
16513;DHT22;8369;48.030;11.598;2022-07-11T02:29:02;16.00;97.20
16513;DHT22;8369;48.030;11.598;2022-07-11T02:31:27;16.00;96.60
16513;DHT22;8369;48.030;11.598;2022-07-11T02:33:53;16.00;97.10
16513;DHT22;8369;48.030;11.598;2022-07-11T02:36:19;16.00;98.10
16513;DHT22;8369;48.030;11.598;2022-07-11T02:38:45;16.00;98.20
16513;DHT22;8369;48.030;11.598;2022-07-11T02:41:11;16.00;98.20
16513;DHT22;8369;48.030;11.598;2022-07-11T02:43:38;16.00;98.40
16513;DHT22;8369;48.030;11.598;2022-07-11T02:46:04;15.90;98.70
16513;DHT22;8369;48.030;11.598;2022-07-11T02:48:31;15.90;99.20
16513;DHT22;8369;48.030;11.598;2022-07-11T02:50:57;15.90;99.40
16513;DHT22;8369;48.030;11.598;2022-07-11T02:53:23;15.90;99.20
16513;DHT22;8369;48.030;11.598;2022-07-11T02:55:49;15.90;98.90
16513;DHT22;8369;48.030;11.598;2022-07-11T02:58:15;15.90;99.10
16513;DHT22;8369;48.030;11.598;2022-07-11T03:00:41;15.90;99.20
16513;DHT22;8369;48.030;11.598;2022-07-11T03:03:07;15.90;99.70
16513;DHT22;8369;48.030;11.598;2022-07-11T03:05:33;15.90;99.30
16513;DHT22;8369;48.030;11.598;2022-07-11T03:07:59;15.90;99.70
16513;DHT22;8369;48.030;11.598;2022-07-11T03:10:26;15.90;99.50
16513;DHT22;8369;48.030;11.598;2022-07-11T03:12:55;15.90;99.10
16513;DHT22;8369;48.030;11.598;2022-07-11T03:15:21;15.90;98.70
16513;DHT22;8369;48.030;11.598;2022-07-11T03:17:47;15.90;98.80
16513;DHT22;8369;48.030;11.598;2022-07-11T03:20:13;15.90;98.60
16513;DHT22;8369;48.030;11.598;2022-07-11T03:22:39;15.90;98.50
16513;DHT22;8369;48.030;11.598;2022-07-11T03:25:05;15.90;98.70
16513;DHT22;8369;48.030;11.598;2022-07-11T03:27:32;15.90;98.80
16513;DHT22;8369;48.030;11.598;2022-07-11T03:29:58;15.90;98.30
16513;DHT22;8369;48.030;11.598;2022-07-11T03:32:24;15.90;98.00
16513;DHT22;8369;48.030;11.598;2022-07-11T03:34:50;15.90;97.90
16513;DHT22;8369;48.030;11.598;2022-07-11T03:37:34;16.00;98.00
16513;DHT22;8369;48.030;11.598;2022-07-11T03:40:02;16.00;98.10
16513;DHT22;8369;48.030;11.598;2022-07-11T03:42:28;15.90;97.80
16513;DHT22;8369;48.030;11.598;2022-07-11T03:44:54;15.90;98.30
16513;DHT22;8369;48.030;11.598;2022-07-11T03:47:22;15.90;98.60
16513;DHT22;8369;48.030;11.598;2022-07-11T03:49:51;15.90;98.90
16513;DHT22;8369;48.030;11.598;2022-07-11T03:52:17;15.90;98.90
16513;DHT22;8369;48.030;11.598;2022-07-11T03:54:42;15.90;99.10
16513;DHT22;8369;48.030;11.598;2022-07-11T03:57:09;15.90;99.00
16513;DHT22;8369;48.030;11.598;2022-07-11T03:59:34;15.90;98.50
16513;DHT22;8369;48.030;11.598;2022-07-11T04:02:00;15.90;98.60
16513;DHT22;8369;48.030;11.598;2022-07-11T04:04:26;15.90;98.80
16513;DHT22;8369;48.030;11.598;2022-07-11T04:06:52;15.90;98.60
16513;DHT22;8369;48.030;11.598;2022-07-11T04:09:18;15.90;98.50
16513;DHT22;8369;48.030;11.598;2022-07-11T04:11:43;15.90;98.80
16513;DHT22;8369;48.030;11.598;2022-07-11T04:14:09;15.90;99.10
16513;DHT22;8369;48.030;11.598;2022-07-11T04:16:35;16.00;99.10
16513;DHT22;8369;48.030;11.598;2022-07-11T04:19:03;16.00;98.30
16513;DHT22;8369;48.030;11.598;2022-07-11T04:21:29;16.00;98.00
16513;DHT22;8369;48.030;11.598;2022-07-11T04:23:55;16.00;98.00
16513;DHT22;8369;48.030;11.598;2022-07-11T04:26:21;16.00;97.50
16513;DHT22;8369;48.030;11.598;2022-07-11T04:28:47;16.10;98.30
16513;DHT22;8369;48.030;11.598;2022-07-11T04:31:14;16.10;97.50
16513;DHT22;8369;48.030;11.598;2022-07-11T04:33:39;16.10;96.20
16513;DHT22;8369;48.030;11.598;2022-07-11T04:36:05;16.10;95.40
16513;DHT22;8369;48.030;11.598;2022-07-11T04:38:32;16.10;96.20
16513;DHT22;8369;48.030;11.598;2022-07-11T04:40:57;16.10;96.00
16513;DHT22;8369;48.030;11.598;2022-07-11T04:43:23;16.10;95.80
16513;DHT22;8369;48.030;11.598;2022-07-11T04:45:48;16.20;95.70
16513;DHT22;8369;48.030;11.598;2022-07-11T04:48:15;16.20;96.10
16513;DHT22;8369;48.030;11.598;2022-07-11T04:50:44;16.20;96.00
16513;DHT22;8369;48.030;11.598;2022-07-11T04:53:10;16.20;96.30
16513;DHT22;8369;48.030;11.598;2022-07-11T04:55:38;16.20;96.30
16513;DHT22;8369;48.030;11.598;2022-07-11T04:58:07;16.20;96.30
16513;DHT22;8369;48.030;11.598;2022-07-11T05:00:34;16.30;96.40
16513;DHT22;8369;48.030;11.598;2022-07-11T05:03:01;16.30;96.00
16513;DHT22;8369;48.030;11.598;2022-07-11T05:05:27;16.30;95.70
16513;DHT22;8369;48.030;11.598;2022-07-11T05:07:53;16.30;96.10
16513;DHT22;8369;48.030;11.598;2022-07-11T05:10:19;16.40;94.50
16513;DHT22;8369;48.030;11.598;2022-07-11T05:12:46;16.40;93.60
16513;DHT22;8369;48.030;11.598;2022-07-11T05:15:12;16.50;93.80
16513;DHT22;8369;48.030;11.598;2022-07-11T05:17:38;16.50;93.50
16513;DHT22;8369;48.030;11.598;2022-07-11T05:20:04;16.60;93.50
16513;DHT22;8369;48.030;11.598;2022-07-11T05:22:30;16.60;93.60
16513;DHT22;8369;48.030;11.598;2022-07-11T05:24:56;16.60;93.90
16513;DHT22;8369;48.030;11.598;2022-07-11T05:27:21;16.70;92.60
16513;DHT22;8369;48.030;11.598;2022-07-11T05:29:47;16.70;92.30
16513;DHT22;8369;48.030;11.598;2022-07-11T05:32:14;16.80;92.00
16513;DHT22;8369;48.030;11.598;2022-07-11T05:34:39;16.80;91.70
16513;DHT22;8369;48.030;11.598;2022-07-11T05:37:05;16.90;91.30
16513;DHT22;8369;48.030;11.598;2022-07-11T05:39:31;16.90;92.60
16513;DHT22;8369;48.030;11.598;2022-07-11T05:41:57;16.90;92.60
16513;DHT22;8369;48.030;11.598;2022-07-11T05:44:23;16.90;92.30
16513;DHT22;8369;48.030;11.598;2022-07-11T05:46:49;17.00;92.60
16513;DHT22;8369;48.030;11.598;2022-07-11T05:49:15;17.10;90.60
16513;DHT22;8369;48.030;11.598;2022-07-11T05:51:41;17.10;90.10
16513;DHT22;8369;48.030;11.598;2022-07-11T05:54:07;17.10;90.50
16513;DHT22;8369;48.030;11.598;2022-07-11T05:56:33;17.20;89.50
16513;DHT22;8369;48.030;11.598;2022-07-11T05:58:59;17.20;90.10
16513;DHT22;8369;48.030;11.598;2022-07-11T06:01:25;17.30;90.10
16513;DHT22;8369;48.030;11.598;2022-07-11T06:03:52;17.30;90.40
16513;DHT22;8369;48.030;11.598;2022-07-11T06:06:18;17.40;90.20
16513;DHT22;8369;48.030;11.598;2022-07-11T06:08:45;17.40;90.10
16513;DHT22;8369;48.030;11.598;2022-07-11T06:11:13;17.50;87.40
16513;DHT22;8369;48.030;11.598;2022-07-11T06:13:40;17.60;89.40
16513;DHT22;8369;48.030;11.598;2022-07-11T06:16:10;17.60;89.50
16513;DHT22;8369;48.030;11.598;2022-07-11T06:18:40;17.70;87.60
16513;DHT22;8369;48.030;11.598;2022-07-11T06:21:06;17.80;87.70
16513;DHT22;8369;48.030;11.598;2022-07-11T06:23:33;17.80;85.60
16513;DHT22;8369;48.030;11.598;2022-07-11T06:26:02;17.90;85.00
16513;DHT22;8369;48.030;11.598;2022-07-11T06:28:28;17.90;85.00
16513;DHT22;8369;48.030;11.598;2022-07-11T06:30:54;18.00;85.90
16513;DHT22;8369;48.030;11.598;2022-07-11T06:33:21;18.10;85.10
16513;DHT22;8369;48.030;11.598;2022-07-11T06:35:47;18.10;83.70
16513;DHT22;8369;48.030;11.598;2022-07-11T06:38:16;18.20;80.00
16513;DHT22;8369;48.030;11.598;2022-07-11T06:40:42;18.30;80.60
16513;DHT22;8369;48.030;11.598;2022-07-11T06:43:12;18.30;81.50
16513;DHT22;8369;48.030;11.598;2022-07-11T06:45:38;18.40;81.80
16513;DHT22;8369;48.030;11.598;2022-07-11T06:48:05;18.50;80.50
16513;DHT22;8369;48.030;11.598;2022-07-11T06:50:32;18.60;80.80
16513;DHT22;8369;48.030;11.598;2022-07-11T06:52:59;18.70;80.80
16513;DHT22;8369;48.030;11.598;2022-07-11T06:55:25;18.80;79.60
16513;DHT22;8369;48.030;11.598;2022-07-11T06:57:52;18.90;78.40
16513;DHT22;8369;48.030;11.598;2022-07-11T07:00:18;18.90;78.20
16513;DHT22;8369;48.030;11.598;2022-07-11T07:02:45;19.00;77.60
16513;DHT22;8369;48.030;11.598;2022-07-11T07:05:11;19.10;77.60
16513;DHT22;8369;48.030;11.598;2022-07-11T07:07:38;19.10;78.40
16513;DHT22;8369;48.030;11.598;2022-07-11T07:10:04;19.20;77.30
16513;DHT22;8369;48.030;11.598;2022-07-11T07:12:31;19.20;73.50
16513;DHT22;8369;48.030;11.598;2022-07-11T07:15:00;19.20;74.30
16513;DHT22;8369;48.030;11.598;2022-07-11T07:17:26;19.30;75.30
16513;DHT22;8369;48.030;11.598;2022-07-11T07:19:52;19.40;76.20
16513;DHT22;8369;48.030;11.598;2022-07-11T07:22:18;19.40;75.80
16513;DHT22;8369;48.030;11.598;2022-07-11T07:24:44;19.50;76.70
16513;DHT22;8369;48.030;11.598;2022-07-11T07:27:11;19.60;74.30
16513;DHT22;8369;48.030;11.598;2022-07-11T07:29:37;19.60;74.90
16513;DHT22;8369;48.030;11.598;2022-07-11T07:32:04;19.70;75.00
16513;DHT22;8369;48.030;11.598;2022-07-11T07:34:31;19.70;73.50
16513;DHT22;8369;48.030;11.598;2022-07-11T07:36:59;19.80;72.90
16513;DHT22;8369;48.030;11.598;2022-07-11T07:39:25;19.80;70.70
16513;DHT22;8369;48.030;11.598;2022-07-11T07:41:53;19.90;72.00
16513;DHT22;8369;48.030;11.598;2022-07-11T07:44:19;19.90;72.00
16513;DHT22;8369;48.030;11.598;2022-07-11T07:46:46;20.00;72.60
16513;DHT22;8369;48.030;11.598;2022-07-11T07:49:13;20.10;72.40
16513;DHT22;8369;48.030;11.598;2022-07-11T07:51:39;20.20;72.60
16513;DHT22;8369;48.030;11.598;2022-07-11T07:54:06;20.40;72.70
16513;DHT22;8369;48.030;11.598;2022-07-11T07:56:32;20.50;70.70
16513;DHT22;8369;48.030;11.598;2022-07-11T07:58:58;20.70;69.20
16513;DHT22;8369;48.030;11.598;2022-07-11T08:01:24;20.60;69.80
16513;DHT22;8369;48.030;11.598;2022-07-11T08:04:06;20.60;69.70
16513;DHT22;8369;48.030;11.598;2022-07-11T08:06:33;20.50;70.60
16513;DHT22;8369;48.030;11.598;2022-07-11T08:09:00;20.40;71.10
16513;DHT22;8369;48.030;11.598;2022-07-11T08:11:29;20.30;69.40
16513;DHT22;8369;48.030;11.598;2022-07-11T08:13:56;20.30;71.50
16513;DHT22;8369;48.030;11.598;2022-07-11T08:16:23;20.20;69.40
16513;DHT22;8369;48.030;11.598;2022-07-11T08:18:49;20.10;70.90
16513;DHT22;8369;48.030;11.598;2022-07-11T08:21:16;20.20;70.40
16513;DHT22;8369;48.030;11.598;2022-07-11T08:23:42;20.10;69.50
16513;DHT22;8369;48.030;11.598;2022-07-11T08:26:08;20.10;70.30
16513;DHT22;8369;48.030;11.598;2022-07-11T08:28:35;20.10;70.60
16513;DHT22;8369;48.030;11.598;2022-07-11T08:31:01;20.10;71.50
16513;DHT22;8369;48.030;11.598;2022-07-11T08:33:28;20.20;71.50
16513;DHT22;8369;48.030;11.598;2022-07-11T08:35:54;20.20;71.10
16513;DHT22;8369;48.030;11.598;2022-07-11T08:38:21;20.20;70.60
16513;DHT22;8369;48.030;11.598;2022-07-11T08:40:50;20.20;69.80
16513;DHT22;8369;48.030;11.598;2022-07-11T08:43:22;20.20;69.40
16513;DHT22;8369;48.030;11.598;2022-07-11T08:45:54;20.30;70.60
16513;DHT22;8369;48.030;11.598;2022-07-11T08:48:22;20.40;70.90
16513;DHT22;8369;48.030;11.598;2022-07-11T08:50:50;20.50;70.60
16513;DHT22;8369;48.030;11.598;2022-07-11T08:53:16;20.60;70.10
16513;DHT22;8369;48.030;11.598;2022-07-11T08:55:43;20.60;70.40
16513;DHT22;8369;48.030;11.598;2022-07-11T08:58:09;20.60;70.10
16513;DHT22;8369;48.030;11.598;2022-07-11T09:00:47;20.50;69.10
16513;DHT22;8369;48.030;11.598;2022-07-11T09:03:18;20.50;69.50
16513;DHT22;8369;48.030;11.598;2022-07-11T09:05:44;20.50;68.90
16513;DHT22;8369;48.030;11.598;2022-07-11T09:08:10;20.50;68.30
16513;DHT22;8369;48.030;11.598;2022-07-11T09:10:42;20.50;69.70
16513;DHT22;8369;48.030;11.598;2022-07-11T09:13:10;20.50;69.70
16513;DHT22;8369;48.030;11.598;2022-07-11T09:15:43;20.50;69.20
16513;DHT22;8369;48.030;11.598;2022-07-11T09:20:58;20.60;69.10
16513;DHT22;8369;48.030;11.598;2022-07-11T09:23:44;20.60;69.50
16513;DHT22;8369;48.030;11.598;2022-07-11T09:26:30;20.60;69.50
16513;DHT22;8369;48.030;11.598;2022-07-11T09:31:27;20.60;69.20
16513;DHT22;8369;48.030;11.598;2022-07-11T09:34:08;20.50;69.40
16513;DHT22;8369;48.030;11.598;2022-07-11T09:36:37;20.60;69.20
16513;DHT22;8369;48.030;11.598;2022-07-11T09:39:05;20.60;70.10
16513;DHT22;8369;48.030;11.598;2022-07-11T09:41:36;20.60;70.00
16513;DHT22;8369;48.030;11.598;2022-07-11T09:44:17;20.70;69.70
16513;DHT22;8369;48.030;11.598;2022-07-11T09:46:49;20.80;68.90
16513;DHT22;8369;48.030;11.598;2022-07-11T09:49:17;20.80;69.80
16513;DHT22;8369;48.030;11.598;2022-07-11T09:51:44;20.70;69.20
16513;DHT22;8369;48.030;11.598;2022-07-11T09:54:10;20.80;70.00
16513;DHT22;8369;48.030;11.598;2022-07-11T09:56:39;20.90;70.00
16513;DHT22;8369;48.030;11.598;2022-07-11T09:59:08;21.00;70.30
16513;DHT22;8369;48.030;11.598;2022-07-11T10:01:35;21.10;69.40
16513;DHT22;8369;48.030;11.598;2022-07-11T10:04:01;21.00;68.30
16513;DHT22;8369;48.030;11.598;2022-07-11T10:06:28;21.00;68.80
16513;DHT22;8369;48.030;11.598;2022-07-11T10:12:01;21.00;67.40
16513;DHT22;8369;48.030;11.598;2022-07-11T10:14:26;21.00;69.40
16513;DHT22;8369;48.030;11.598;2022-07-11T10:16:59;21.20;69.50
16513;DHT22;8369;48.030;11.598;2022-07-11T10:19:47;21.20;69.50
16513;DHT22;8369;48.030;11.598;2022-07-11T10:22:38;21.20;69.10
16513;DHT22;8369;48.030;11.598;2022-07-11T10:25:33;21.30;69.70
16513;DHT22;8369;48.030;11.598;2022-07-11T10:30:48;21.10;70.00
16513;DHT22;8369;48.030;11.598;2022-07-11T10:33:16;21.20;70.10
16513;DHT22;8369;48.030;11.598;2022-07-11T10:35:43;21.10;69.80
16513;DHT22;8369;48.030;11.598;2022-07-11T10:38:10;21.10;70.30
16513;DHT22;8369;48.030;11.598;2022-07-11T10:40:57;21.20;70.60
16513;DHT22;8369;48.030;11.598;2022-07-11T10:43:38;21.10;70.30
16513;DHT22;8369;48.030;11.598;2022-07-11T10:46:08;21.10;70.70
16513;DHT22;8369;48.030;11.598;2022-07-11T10:49:16;21.10;70.90
16513;DHT22;8369;48.030;11.598;2022-07-11T10:57:27;21.10;70.90
16513;DHT22;8369;48.030;11.598;2022-07-11T11:02:28;21.00;69.10
16513;DHT22;8369;48.030;11.598;2022-07-11T11:05:00;21.00;70.10
16513;DHT22;8369;48.030;11.598;2022-07-11T11:07:44;21.20;70.70
16513;DHT22;8369;48.030;11.598;2022-07-11T11:26:19;21.80;67.70
16513;DHT22;8369;48.030;11.598;2022-07-11T11:29:02;22.00;66.90
16513;DHT22;8369;48.030;11.598;2022-07-11T11:31:29;22.00;66.30
16513;DHT22;8369;48.030;11.598;2022-07-11T11:33:57;22.00;66.60
16513;DHT22;8369;48.030;11.598;2022-07-11T11:36:24;22.10;67.20
16513;DHT22;8369;48.030;11.598;2022-07-11T11:39:00;22.10;66.90
16513;DHT22;8369;48.030;11.598;2022-07-11T11:41:29;22.10;67.20
16513;DHT22;8369;48.030;11.598;2022-07-11T11:44:00;22.00;65.70
16513;DHT22;8369;48.030;11.598;2022-07-11T11:46:31;21.90;66.80
16513;DHT22;8369;48.030;11.598;2022-07-11T11:49:01;21.90;66.80
16513;DHT22;8369;48.030;11.598;2022-07-11T11:51:27;21.90;68.00
16513;DHT22;8369;48.030;11.598;2022-07-11T11:53:58;22.00;67.90
16513;DHT22;8369;48.030;11.598;2022-07-11T11:59:05;22.20;67.60
16513;DHT22;8369;48.030;11.598;2022-07-11T12:01:36;22.20;67.10
16513;DHT22;8369;48.030;11.598;2022-07-11T12:04:04;22.30;66.90
16513;DHT22;8369;48.030;11.598;2022-07-11T12:06:37;22.40;67.60
16513;DHT22;8369;48.030;11.598;2022-07-11T12:09:06;22.50;66.90
16513;DHT22;8369;48.030;11.598;2022-07-11T12:11:35;22.50;66.90
16513;DHT22;8369;48.030;11.598;2022-07-11T12:14:07;22.50;67.20
16513;DHT22;8369;48.030;11.598;2022-07-11T12:16:34;22.50;66.80
16513;DHT22;8369;48.030;11.598;2022-07-11T12:19:21;22.40;65.70
16513;DHT22;8369;48.030;11.598;2022-07-11T12:21:49;22.30;66.20
16513;DHT22;8369;48.030;11.598;2022-07-11T12:24:23;22.20;66.90
16513;DHT22;8369;48.030;11.598;2022-07-11T12:26:49;22.00;67.70
16513;DHT22;8369;48.030;11.598;2022-07-11T12:29:19;21.90;67.60
16513;DHT22;8369;48.030;11.598;2022-07-11T12:32:00;21.80;67.70
16513;DHT22;8369;48.030;11.598;2022-07-11T12:37:10;21.50;68.00
16513;DHT22;8369;48.030;11.598;2022-07-11T12:39:38;21.50;68.80
16513;DHT22;8369;48.030;11.598;2022-07-11T12:42:25;21.50;69.70
16513;DHT22;8369;48.030;11.598;2022-07-11T12:44:59;21.40;70.00
16513;DHT22;8369;48.030;11.598;2022-07-11T12:47:33;21.40;70.30
16513;DHT22;8369;48.030;11.598;2022-07-11T12:50:28;21.50;69.40
16513;DHT22;8369;48.030;11.598;2022-07-11T12:52:54;21.60;69.80
16513;DHT22;8369;48.030;11.598;2022-07-11T12:58:10;21.90;68.80
16513;DHT22;8369;48.030;11.598;2022-07-11T13:00:43;21.90;68.90
16513;DHT22;8369;48.030;11.598;2022-07-11T13:03:34;22.00;68.80
16513;DHT22;8369;48.030;11.598;2022-07-11T13:06:00;22.10;68.20
16513;DHT22;8369;48.030;11.598;2022-07-11T13:08:30;22.10;68.50
16513;DHT22;8369;48.030;11.598;2022-07-11T13:11:12;22.10;67.40
16513;DHT22;8369;48.030;11.598;2022-07-11T13:13:38;22.10;66.90
16513;DHT22;8369;48.030;11.598;2022-07-11T13:16:05;22.10;67.90
16513;DHT22;8369;48.030;11.598;2022-07-11T13:18:31;22.10;68.80
16513;DHT22;8369;48.030;11.598;2022-07-11T13:21:00;22.10;69.20
16513;DHT22;8369;48.030;11.598;2022-07-11T13:23:29;22.10;69.20
16513;DHT22;8369;48.030;11.598;2022-07-11T13:25:55;22.10;71.70
16513;DHT22;8369;48.030;11.598;2022-07-11T13:28:21;22.20;70.90
16513;DHT22;8369;48.030;11.598;2022-07-11T13:30:49;22.20;70.90
16513;DHT22;8369;48.030;11.598;2022-07-11T13:33:15;22.20;70.00
16513;DHT22;8369;48.030;11.598;2022-07-11T13:35:46;22.40;69.40
16513;DHT22;8369;48.030;11.598;2022-07-11T13:38:12;22.40;68.80
16513;DHT22;8369;48.030;11.598;2022-07-11T13:40:38;22.50;67.60
16513;DHT22;8369;48.030;11.598;2022-07-11T13:43:04;22.50;68.30
16513;DHT22;8369;48.030;11.598;2022-07-11T13:45:30;22.60;68.20
16513;DHT22;8369;48.030;11.598;2022-07-11T13:47:56;22.70;66.60
16513;DHT22;8369;48.030;11.598;2022-07-11T13:50:24;22.80;66.90
16513;DHT22;8369;48.030;11.598;2022-07-11T13:52:53;22.80;66.50
16513;DHT22;8369;48.030;11.598;2022-07-11T13:55:21;23.00;66.60
16513;DHT22;8369;48.030;11.598;2022-07-11T13:57:54;23.20;66.80
16513;DHT22;8369;48.030;11.598;2022-07-11T14:00:20;23.40;65.00
16513;DHT22;8369;48.030;11.598;2022-07-11T14:02:46;23.40;64.50
16513;DHT22;8369;48.030;11.598;2022-07-11T14:05:13;23.60;63.10
16513;DHT22;8369;48.030;11.598;2022-07-11T14:07:40;23.60;64.20
16513;DHT22;8369;48.030;11.598;2022-07-11T14:10:06;23.70;63.30
16513;DHT22;8369;48.030;11.598;2022-07-11T14:12:34;23.70;64.40
16513;DHT22;8369;48.030;11.598;2022-07-11T14:15:00;23.80;64.20
16513;DHT22;8369;48.030;11.598;2022-07-11T14:17:26;23.70;64.70
16513;DHT22;8369;48.030;11.598;2022-07-11T14:19:53;23.70;65.10
16513;DHT22;8369;48.030;11.598;2022-07-11T14:22:19;23.60;64.40
16513;DHT22;8369;48.030;11.598;2022-07-11T14:24:47;23.30;65.40
16513;DHT22;8369;48.030;11.598;2022-07-11T14:27:14;23.20;66.00
16513;DHT22;8369;48.030;11.598;2022-07-11T14:29:41;23.10;66.30
16513;DHT22;8369;48.030;11.598;2022-07-11T14:32:07;22.90;66.20
16513;DHT22;8369;48.030;11.598;2022-07-11T14:34:33;22.80;66.90
16513;DHT22;8369;48.030;11.598;2022-07-11T14:36:59;22.70;67.60
16513;DHT22;8369;48.030;11.598;2022-07-11T14:39:32;22.70;66.50
16513;DHT22;8369;48.030;11.598;2022-07-11T14:41:59;22.60;66.00
16513;DHT22;8369;48.030;11.598;2022-07-11T14:44:26;22.50;66.50
16513;DHT22;8369;48.030;11.598;2022-07-11T14:46:53;22.40;66.80
16513;DHT22;8369;48.030;11.598;2022-07-11T14:49:19;22.40;66.80
16513;DHT22;8369;48.030;11.598;2022-07-11T14:51:44;22.20;67.40
16513;DHT22;8369;48.030;11.598;2022-07-11T14:54:10;22.20;68.20
16513;DHT22;8369;48.030;11.598;2022-07-11T14:56:38;22.20;68.00
16513;DHT22;8369;48.030;11.598;2022-07-11T14:59:07;22.20;67.90
16513;DHT22;8369;48.030;11.598;2022-07-11T15:01:35;22.20;68.60
16513;DHT22;8369;48.030;11.598;2022-07-11T15:04:00;22.30;68.90
16513;DHT22;8369;48.030;11.598;2022-07-11T15:06:28;22.20;68.20
16513;DHT22;8369;48.030;11.598;2022-07-11T15:09:15;22.20;68.80
16513;DHT22;8369;48.030;11.598;2022-07-11T15:12:02;22.30;68.90
16513;DHT22;8369;48.030;11.598;2022-07-11T15:14:46;22.40;68.30
16513;DHT22;8369;48.030;11.598;2022-07-11T15:17:14;22.40;68.30
16513;DHT22;8369;48.030;11.598;2022-07-11T15:19:40;22.40;69.10
16513;DHT22;8369;48.030;11.598;2022-07-11T15:22:06;22.40;68.60
16513;DHT22;8369;48.030;11.598;2022-07-11T15:24:32;22.40;69.50
16513;DHT22;8369;48.030;11.598;2022-07-11T15:26:58;22.40;69.40
16513;DHT22;8369;48.030;11.598;2022-07-11T15:29:25;22.50;69.50
16513;DHT22;8369;48.030;11.598;2022-07-11T15:31:51;22.50;70.40
16513;DHT22;8369;48.030;11.598;2022-07-11T15:34:17;22.50;69.40
16513;DHT22;8369;48.030;11.598;2022-07-11T15:36:45;22.50;67.90
16513;DHT22;8369;48.030;11.598;2022-07-11T15:39:11;22.40;68.60
16513;DHT22;8369;48.030;11.598;2022-07-11T15:41:37;22.40;68.90
16513;DHT22;8369;48.030;11.598;2022-07-11T15:44:03;22.30;70.00
16513;DHT22;8369;48.030;11.598;2022-07-11T15:46:29;22.30;70.60
16513;DHT22;8369;48.030;11.598;2022-07-11T15:48:55;22.30;70.60
16513;DHT22;8369;48.030;11.598;2022-07-11T15:51:21;22.20;71.20
16513;DHT22;8369;48.030;11.598;2022-07-11T15:53:47;22.20;71.70
16513;DHT22;8369;48.030;11.598;2022-07-11T15:56:13;22.10;71.20
16513;DHT22;8369;48.030;11.598;2022-07-11T15:58:38;22.00;71.10
16513;DHT22;8369;48.030;11.598;2022-07-11T16:01:04;22.00;71.70
16513;DHT22;8369;48.030;11.598;2022-07-11T16:03:30;22.00;72.10
16513;DHT22;8369;48.030;11.598;2022-07-11T16:05:57;22.00;72.40
16513;DHT22;8369;48.030;11.598;2022-07-11T16:08:23;22.10;72.40
16513;DHT22;8369;48.030;11.598;2022-07-11T16:10:50;22.10;72.30
16513;DHT22;8369;48.030;11.598;2022-07-11T16:13:16;22.10;72.00
16513;DHT22;8369;48.030;11.598;2022-07-11T16:15:43;22.10;72.30
16513;DHT22;8369;48.030;11.598;2022-07-11T16:18:09;22.00;72.70
16513;DHT22;8369;48.030;11.598;2022-07-11T16:20:36;22.10;72.90
16513;DHT22;8369;48.030;11.598;2022-07-11T16:23:04;22.10;71.70
16513;DHT22;8369;48.030;11.598;2022-07-11T16:25:31;22.20;71.80